Time;durP1;ratioP1;P1;durP2;ratioP2;P2;SDS_P1;SDS_P2;PMS_P1;PMS_P2;Temp;Humidity;BMP_temperature;BMP_pressure;BME280_temperature;BME280_humidity;BME280_pressure;Samples;Min_cycle;Max_cycle;Signal;HPM_P1;HPM_P2
2022/10/11 00:00:32;;;;;;;10.18;5.70;;;;;;;;;;4935723;29;20043;-64
2022/10/11 00:02:59;;;;;;;10.27;4.97;;;;;;;;;;4936354;29;20043;-63
2022/10/11 00:05:26;;;;;;;10.18;4.85;;;;;;;;;;4936142;29;20040;-63
2022/10/11 00:07:52;;;;;;;6.38;4.50;;;;;;;;;;4936552;29;20047;-63
2022/10/11 00:10:19;;;;;;;7.15;4.63;;;;;;;;;;4936266;29;20493;-62
2022/10/11 00:12:45;;;;;;;10.60;5.05;;;;;;;;;;4936009;29;20099;-63
2022/10/11 00:15:13;;;;;;;14.32;5.10;;;;;;;;;;4934265;29;20047;-63
2022/10/11 00:17:40;;;;;;;9.90;4.75;;;;;;;;;;4935987;29;20036;-63
2022/10/11 00:20:06;;;;;;;8.00;4.80;;;;;;;;;;4934538;29;20556;-63
2022/10/11 00:22:33;;;;;;;8.07;5.25;;;;;;;;;;4935819;29;20043;-63
2022/10/11 00:25:00;;;;;;;8.02;4.60;;;;;;;;;;4935117;29;20036;-64
2022/10/11 00:27:26;;;;;;;8.38;5.18;;;;;;;;;;4935597;29;20047;-63
2022/10/11 00:29:52;;;;;;;7.57;4.80;;;;;;;;;;4934242;29;20058;-63
2022/10/11 00:32:19;;;;;;;9.77;5.25;;;;;;;;;;4935882;29;20400;-63
2022/10/11 00:34:45;;;;;;;10.32;6.28;;;;;;;;;;4934851;29;20039;-63
2022/10/11 00:37:12;;;;;;;9.93;6.28;;;;;;;;;;4934016;29;20048;-64
2022/10/11 00:39:38;;;;;;;12.73;6.93;;;;;;;;;;4935172;29;20047;-62
2022/10/11 00:42:10;;;;;;;13.82;6.38;;;;;;;;;;4918439;29;20048;-63
2022/10/11 00:44:36;;;;;;;9.68;6.30;;;;;;;;;;4934692;29;20095;-64
2022/10/11 00:47:05;;;;;;;11.48;6.80;;;;;;;;;;4935194;29;20459;-63
2022/10/11 00:49:31;;;;;;;13.52;8.00;;;;;;;;;;4935138;29;20059;-63
2022/10/11 00:52:00;;;;;;;14.65;9.10;;;;;;;;;;4933970;29;20174;-63
2022/10/11 00:54:28;;;;;;;15.45;8.93;;;;;;;;;;4934495;29;20169;-63
2022/10/11 00:56:57;;;;;;;14.07;8.23;;;;;;;;;;4934914;29;20131;-63
2022/10/11 00:59:26;;;;;;;13.35;8.88;;;;;;;;;;4933712;29;20555;-63
2022/10/11 01:01:53;;;;;;;16.20;9.63;;;;;;;;;;4934432;29;20048;-64
2022/10/11 01:04:20;;;;;;;12.02;7.15;;;;;;;;;;4934519;29;20043;-63
2022/10/11 01:06:47;;;;;;;12.27;7.72;;;;;;;;;;4935051;29;20469;-62
2022/10/11 01:09:13;;;;;;;11.07;7.40;;;;;;;;;;4934776;29;20408;-63
2022/10/11 01:11:41;;;;;;;17.02;9.80;;;;;;;;;;4934941;29;20047;-63
2022/10/11 01:14:13;;;;;;;12.75;9.43;;;;;;;;;;4933072;29;20056;-64
2022/10/11 01:16:49;;;;;;;18.73;11.10;;;;;;;;;;4935194;29;20035;-63
2022/10/11 01:19:29;;;;;;;21.08;13.38;;;;;;;;;;4934838;29;20044;-63
2022/10/11 01:22:08;;;;;;;19.77;12.27;;;;;;;;;;4933853;29;20076;-63
2022/10/11 01:24:42;;;;;;;26.00;14.05;;;;;;;;;;4934334;29;20074;-63
2022/10/11 01:27:26;;;;;;;21.05;14.50;;;;;;;;;;4934972;29;20079;-63
2022/10/11 01:30:01;;;;;;;29.45;15.77;;;;;;;;;;4934959;29;20468;-62
2022/10/11 01:32:36;;;;;;;23.33;15.75;;;;;;;;;;4935167;29;20048;-62
2022/10/11 01:35:02;;;;;;;23.23;16.63;;;;;;;;;;4934345;29;20106;-63
2022/10/11 01:37:31;;;;;;;24.17;15.88;;;;;;;;;;4934898;29;20052;-63
2022/10/11 01:40:12;;;;;;;26.08;16.23;;;;;;;;;;4934879;29;20559;-64
2022/10/11 01:42:40;;;;;;;27.38;15.95;;;;;;;;;;4934762;29;20080;-64
2022/10/11 01:45:08;;;;;;;22.77;15.93;;;;;;;;;;4934258;29;20115;-64
2022/10/11 01:47:34;;;;;;;27.65;16.00;;;;;;;;;;4935035;29;20051;-64
2022/10/11 01:50:01;;;;;;;24.35;15.70;;;;;;;;;;4938414;29;20103;-63
2022/10/11 01:52:29;;;;;;;23.42;15.65;;;;;;;;;;4938429;29;20091;-64
2022/10/11 01:55:14;;;;;;;21.13;15.02;;;;;;;;;;4937823;29;20093;-63
2022/10/11 01:57:47;;;;;;;24.70;13.65;;;;;;;;;;4937160;29;20048;-63
2022/10/11 02:00:15;;;;;;;15.93;11.18;;;;;;;;;;4938227;29;20047;-63
2022/10/11 02:03:00;;;;;;;17.40;12.52;;;;;;;;;;4938238;29;20488;-63
2022/10/11 02:05:36;;;;;;;19.20;11.80;;;;;;;;;;4937661;29;20044;-63
2022/10/11 02:08:21;;;;;;;18.65;13.85;;;;;;;;;;4938104;29;20048;-63
2022/10/11 02:10:50;;;;;;;19.90;13.75;;;;;;;;;;4936871;29;20052;-64
2022/10/11 02:13:19;;;;;;;22.48;15.15;;;;;;;;;;4936143;29;20107;-62
2022/10/11 02:15:47;;;;;;;31.13;16.60;;;;;;;;;;4937985;29;20497;-63
2022/10/11 02:18:17;;;;;;;23.13;16.23;;;;;;;;;;4921048;29;20115;-63
2022/10/11 02:20:44;;;;;;;25.50;17.05;;;;;;;;;;4937815;29;20048;-63
2022/10/11 02:23:21;;;;;;;21.15;15.70;;;;;;;;;;4937389;29;20067;-63
2022/10/11 02:25:48;;;;;;;21.20;15.52;;;;;;;;;;4937904;29;20111;-64
2022/10/11 02:28:17;;;;;;;24.92;15.60;;;;;;;;;;4937036;29;20044;-63
2022/10/11 02:30:45;;;;;;;22.02;16.00;;;;;;;;;;4937147;29;20052;-64
2022/10/11 02:33:13;;;;;;;21.70;16.52;;;;;;;;;;4936950;29;20517;-63
2022/10/11 02:35:43;;;;;;;21.02;16.17;;;;;;;;;;4938239;29;20044;-64
2022/10/11 02:38:15;;;;;;;21.48;16.90;;;;;;;;;;4938622;29;20043;-63
2022/10/11 02:40:44;;;;;;;20.92;15.68;;;;;;;;;;4938634;29;20104;-63
2022/10/11 02:43:16;;;;;;;20.17;15.15;;;;;;;;;;4938062;29;20040;-64
2022/10/11 02:45:45;;;;;;;19.77;14.43;;;;;;;;;;4936412;29;20060;-64
2022/10/11 02:48:12;;;;;;;21.88;13.65;;;;;;;;;;4937250;29;20067;-64
2022/10/11 02:50:39;;;;;;;23.67;14.15;;;;;;;;;;4937143;29;20055;-64
2022/10/11 02:53:05;;;;;;;19.55;12.48;;;;;;;;;;4937394;29;20052;-64
2022/10/11 02:55:32;;;;;;;21.92;12.18;;;;;;;;;;4936920;29;20047;-65
2022/10/11 02:57:58;;;;;;;14.27;11.10;;;;;;;;;;4937118;29;20111;-65
2022/10/11 03:00:25;;;;;;;15.50;9.65;;;;;;;;;;4937028;29;20078;-62
2022/10/11 03:02:51;;;;;;;16.38;9.93;;;;;;;;;;4935554;29;20047;-62
2022/10/11 03:05:18;;;;;;;12.07;9.43;;;;;;;;;;4935169;29;20091;-62
2022/10/11 03:07:44;;;;;;;19.02;9.43;;;;;;;;;;4936728;29;20048;-62
2022/10/11 03:10:11;;;;;;;16.63;10.02;;;;;;;;;;4936874;29;20050;-63
2022/10/11 03:12:37;;;;;;;14.52;8.18;;;;;;;;;;4936868;29;20386;-63
2022/10/11 03:15:04;;;;;;;12.52;8.93;;;;;;;;;;4935011;29;20055;-63
2022/10/11 03:17:30;;;;;;;13.13;7.57;;;;;;;;;;4935437;29;20572;-63
2022/10/11 03:20:03;;;;;;;7.88;6.03;;;;;;;;;;4935513;29;20055;-64
2022/10/11 03:22:29;;;;;;;10.07;6.10;;;;;;;;;;4936672;29;20087;-64
2022/10/11 03:24:56;;;;;;;12.00;7.40;;;;;;;;;;4936089;29;20044;-64
2022/10/11 03:27:29;;;;;;;13.68;6.30;;;;;;;;;;4936711;29;20468;-63
2022/10/11 03:29:55;;;;;;;11.85;6.25;;;;;;;;;;4936424;29;20055;-64
2022/10/11 03:32:22;;;;;;;12.23;6.00;;;;;;;;;;4936823;29;20081;-63
2022/10/11 03:34:48;;;;;;;10.48;5.50;;;;;;;;;;4935894;29;20104;-63
2022/10/11 03:37:15;;;;;;;9.00;5.43;;;;;;;;;;4936495;29;20039;-64
2022/10/11 03:39:41;;;;;;;13.80;5.50;;;;;;;;;;4936285;29;20393;-64
2022/10/11 03:42:08;;;;;;;11.75;5.65;;;;;;;;;;4936253;29;20044;-64
2022/10/11 03:44:34;;;;;;;12.85;6.25;;;;;;;;;;4935659;29;20502;-64
2022/10/11 03:47:00;;;;;;;9.35;5.80;;;;;;;;;;4936399;29;20040;-63
2022/10/11 03:49:27;;;;;;;12.15;5.97;;;;;;;;;;4936219;29;20114;-64
2022/10/11 03:51:53;;;;;;;15.18;7.20;;;;;;;;;;4935871;29;20075;-64
2022/10/11 03:54:20;;;;;;;12.73;6.18;;;;;;;;;;4935823;29;20067;-64
2022/10/11 03:56:46;;;;;;;9.07;5.50;;;;;;;;;;4936154;29;20075;-64
2022/10/11 03:59:12;;;;;;;11.27;5.93;;;;;;;;;;4934769;29;20118;-64
2022/10/11 04:01:39;;;;;;;9.05;5.53;;;;;;;;;;5355654;23;20092;-62
2022/10/11 04:04:05;;;;;;;12.50;6.28;;;;;;;;;;4897824;29;20051;-63
2022/10/11 04:06:32;;;;;;;11.32;6.22;;;;;;;;;;4898093;29;20386;-63
2022/10/11 04:08:59;;;;;;;10.20;4.68;;;;;;;;;;4897988;29;20052;-63
2022/10/11 04:11:25;;;;;;;9.38;3.30;;;;;;;;;;4897555;29;20123;-64
2022/10/11 04:13:52;;;;;;;8.00;2.90;;;;;;;;;;4897341;29;20049;-61
2022/10/11 04:16:18;;;;;;;8.02;2.78;;;;;;;;;;4896631;29;20108;-63
2022/10/11 04:18:45;;;;;;;6.57;3.30;;;;;;;;;;4897698;29;20413;-62
2022/10/11 04:21:11;;;;;;;11.35;2.75;;;;;;;;;;4912103;29;20044;-62
2022/10/11 04:23:37;;;;;;;4.43;2.35;;;;;;;;;;4895809;29;20056;-62
2022/10/11 04:26:05;;;;;;;6.50;2.58;;;;;;;;;;4897608;29;20478;-62
2022/10/11 04:28:32;;;;;;;5.70;2.90;;;;;;;;;;4897690;29;20561;-62
2022/10/11 04:30:59;;;;;;;8.35;2.30;;;;;;;;;;4897629;29;20052;-62
2022/10/11 04:33:26;;;;;;;8.88;2.80;;;;;;;;;;4896947;29;20052;-62
2022/10/11 04:35:53;;;;;;;8.73;2.42;;;;;;;;;;4897544;29;20092;-62
2022/10/11 04:38:20;;;;;;;6.85;2.92;;;;;;;;;;4897612;29;20084;-62
2022/10/11 04:40:46;;;;;;;8.40;2.92;;;;;;;;;;4896075;29;20056;-62
2022/10/11 04:43:15;;;;;;;7.68;2.60;;;;;;;;;;4896871;29;20105;-62
2022/10/11 04:45:42;;;;;;;5.72;2.80;;;;;;;;;;4897318;29;20048;-62
2022/10/11 04:48:08;;;;;;;5.57;2.40;;;;;;;;;;4897248;29;20108;-62
2022/10/11 04:50:35;;;;;;;5.43;2.42;;;;;;;;;;4897453;29;20054;-62
2022/10/11 04:53:06;;;;;;;5.97;2.70;;;;;;;;;;4897401;29;20064;-62
2022/10/11 04:55:32;;;;;;;15.95;2.90;;;;;;;;;;4896080;29;20494;-62
2022/10/11 04:57:58;;;;;;;6.97;2.47;;;;;;;;;;4897053;29;20064;-61
2022/10/11 05:00:26;;;;;;;8.75;2.45;;;;;;;;;;4896163;29;20521;-61
2022/10/11 05:02:52;;;;;;;8.43;2.35;;;;;;;;;;4897002;29;20493;-62
2022/10/11 05:05:19;;;;;;;5.75;2.67;;;;;;;;;;4896748;29;20074;-62
2022/10/11 05:07:45;;;;;;;7.75;2.45;;;;;;;;;;4897407;29;20116;-62
2022/10/11 05:10:12;;;;;;;5.80;2.40;;;;;;;;;;4880707;29;20056;-62
2022/10/11 05:12:38;;;;;;;7.70;2.78;;;;;;;;;;4896044;29;20053;-61
2022/10/11 05:15:05;;;;;;;7.47;2.50;;;;;;;;;;4894998;29;20096;-62
2022/10/11 05:17:32;;;;;;;11.23;3.45;;;;;;;;;;4897081;29;20131;-62
2022/10/11 05:19:58;;;;;;;5.47;2.08;;;;;;;;;;4896998;29;20041;-62
2022/10/11 05:22:24;;;;;;;8.73;3.33;;;;;;;;;;4895761;29;20052;-62
2022/10/11 05:24:51;;;;;;;10.98;3.38;;;;;;;;;;4899308;29;20057;-62
2022/10/11 05:27:17;;;;;;;10.45;3.03;;;;;;;;;;4900925;29;20462;-62
2022/10/11 05:29:43;;;;;;;6.38;2.40;;;;;;;;;;4900742;29;20076;-62
2022/10/11 05:32:10;;;;;;;11.80;3.17;;;;;;;;;;4900815;29;20175;-62
2022/10/11 05:34:36;;;;;;;7.15;1.85;;;;;;;;;;4900099;29;20040;-62
2022/10/11 05:37:02;;;;;;;7.57;2.30;;;;;;;;;;4915263;29;20092;-62
2022/10/11 05:39:29;;;;;;;8.73;2.85;;;;;;;;;;4900667;29;20041;-62
2022/10/11 05:41:56;;;;;;;6.82;2.80;;;;;;;;;;4900620;29;20101;-62
2022/10/11 05:44:22;;;;;;;11.57;4.00;;;;;;;;;;4899022;29;20048;-62
2022/10/11 05:46:48;;;;;;;13.30;3.75;;;;;;;;;;4898839;29;20130;-62
2022/10/11 05:49:15;;;;;;;5.63;2.20;;;;;;;;;;4899858;29;20096;-62
2022/10/11 05:51:41;;;;;;;15.38;3.00;;;;;;;;;;4900241;29;20108;-62
2022/10/11 05:54:08;;;;;;;6.88;2.22;;;;;;;;;;4899803;29;20052;-62
2022/10/11 05:56:34;;;;;;;7.50;3.72;;;;;;;;;;4899321;29;20097;-62
2022/10/11 05:59:00;;;;;;;12.93;3.60;;;;;;;;;;4900292;29;20099;-62
2022/10/11 06:01:28;;;;;;;11.90;3.15;;;;;;;;;;4900026;29;20412;-62
2022/10/11 06:03:54;;;;;;;9.30;2.53;;;;;;;;;;4899819;29;20553;-62
2022/10/11 06:06:21;;;;;;;10.88;2.30;;;;;;;;;;4914598;29;20044;-62
2022/10/11 06:08:48;;;;;;;11.68;3.45;;;;;;;;;;4900178;29;20096;-62
2022/10/11 06:11:25;;;;;;;7.45;2.58;;;;;;;;;;4914466;29;20045;-62
2022/10/11 06:13:52;;;;;;;9.60;2.80;;;;;;;;;;4898256;29;20056;-63
2022/10/11 06:16:19;;;;;;;9.45;2.70;;;;;;;;;;4899990;29;20080;-63
2022/10/11 06:18:45;;;;;;;7.78;2.67;;;;;;;;;;4899862;29;20509;-62
2022/10/11 06:21:12;;;;;;;7.40;2.42;;;;;;;;;;4899945;29;20037;-62
2022/10/11 06:23:38;;;;;;;8.23;2.30;;;;;;;;;;4898112;29;20049;-62
2022/10/11 06:26:06;;;;;;;7.05;2.40;;;;;;;;;;4899921;29;20418;-62
2022/10/11 06:28:34;;;;;;;6.32;2.85;;;;;;;;;;4899634;29;20568;-62
2022/10/11 06:31:02;;;;;;;8.07;2.63;;;;;;;;;;4899560;29;20075;-62
2022/10/11 06:33:28;;;;;;;9.25;2.90;;;;;;;;;;4898308;29;20099;-62
2022/10/11 06:35:56;;;;;;;7.30;2.60;;;;;;;;;;4899403;29;20506;-63
2022/10/11 06:38:22;;;;;;;6.32;2.78;;;;;;;;;;4899723;29;20508;-63
2022/10/11 06:40:49;;;;;;;7.68;2.60;;;;;;;;;;4914211;29;20041;-62
2022/10/11 06:43:15;;;;;;;8.50;2.70;;;;;;;;;;4899033;29;20036;-62
2022/10/11 06:45:42;;;;;;;3.88;2.58;;;;;;;;;;4900004;29;20045;-63
2022/10/11 06:48:08;;;;;;;7.68;2.50;;;;;;;;;;4900156;29;20485;-62
2022/10/11 06:50:35;;;;;;;9.88;2.80;;;;;;;;;;4900088;29;20498;-63
2022/10/11 06:53:22;;;;;;;7.07;4.05;;;;;;;;;;4897810;29;20131;-62
2022/10/11 06:55:48;;;;;;;10.25;4.50;;;;;;;;;;4898445;29;20148;-62
2022/10/11 06:58:16;;;;;;;8.02;2.38;;;;;;;;;;4899685;29;20478;-63
2022/10/11 07:00:42;;;;;;;12.07;2.90;;;;;;;;;;4899807;29;20040;-62
2022/10/11 07:03:08;;;;;;;9.98;2.90;;;;;;;;;;4899167;29;20052;-62
2022/10/11 07:05:35;;;;;;;9.52;2.47;;;;;;;;;;4899500;29;20183;-62
2022/10/11 07:08:01;;;;;;;6.80;2.80;;;;;;;;;;4899251;29;20057;-63
2022/10/11 07:10:28;;;;;;;5.68;2.33;;;;;;;;;;4898124;29;20045;-62
2022/10/11 07:12:54;;;;;;;5.97;2.10;;;;;;;;;;4899197;29;20090;-62
2022/10/11 07:15:20;;;;;;;8.05;2.63;;;;;;;;;;4899872;29;20056;-62
2022/10/11 07:17:47;;;;;;;9.07;2.50;;;;;;;;;;4899026;29;20044;-62
2022/10/11 07:20:13;;;;;;;11.30;2.47;;;;;;;;;;4898971;29;20135;-62
2022/10/11 07:22:40;;;;;;;5.05;2.33;;;;;;;;;;4898786;29;20049;-63
2022/10/11 07:25:06;;;;;;;12.10;2.63;;;;;;;;;;4898762;29;20383;-63
2022/10/11 07:27:33;;;;;;;10.40;2.10;;;;;;;;;;4898856;29;20037;-62
2022/10/11 07:29:59;;;;;;;7.78;1.98;;;;;;;;;;4897728;29;20060;-62
2022/10/11 07:32:25;;;;;;;9.20;2.53;;;;;;;;;;4898782;29;20124;-63
2022/10/11 07:34:52;;;;;;;12.10;2.88;;;;;;;;;;4898577;29;20471;-62
2022/10/11 07:37:18;;;;;;;13.07;2.60;;;;;;;;;;4897251;29;20056;-62
2022/10/11 07:39:45;;;;;;;12.25;2.10;;;;;;;;;;4898397;29;20045;-63
2022/10/11 07:42:11;;;;;;;5.13;2.17;;;;;;;;;;4898205;29;20517;-63
2022/10/11 07:44:37;;;;;;;10.57;2.03;;;;;;;;;;4896524;29;20076;-62
2022/10/11 07:47:04;;;;;;;10.90;2.30;;;;;;;;;;4897631;29;20602;-63
2022/10/11 07:49:36;;;;;;;8.40;3.03;;;;;;;;;;4897884;29;20076;-62
2022/10/11 07:52:02;;;;;;;7.15;2.15;;;;;;;;;;4898254;29;20724;-62
2022/10/11 07:54:29;;;;;;;9.45;2.33;;;;;;;;;;4912157;29;20109;-62
2022/10/11 07:56:55;;;;;;;11.25;2.45;;;;;;;;;;4898145;29;20104;-62
2022/10/11 07:59:21;;;;;;;12.23;2.42;;;;;;;;;;4898012;29;20048;-62
2022/10/11 08:01:48;;;;;;;12.70;2.45;;;;;;;;;;4897917;29;20037;-62
2022/10/11 08:04:15;;;;;;;11.32;2.13;;;;;;;;;;4897541;29;20100;-62
2022/10/11 08:06:41;;;;;;;8.15;1.83;;;;;;;;;;4898045;29;20389;-62
2022/10/11 08:09:08;;;;;;;6.32;1.73;;;;;;;;;;4898002;29;20088;-62
2022/10/11 08:11:35;;;;;;;9.00;2.22;;;;;;;;;;4897914;29;20045;-63
2022/10/11 08:14:07;;;;;;;9.32;2.67;;;;;;;;;;4895980;29;20509;-63
2022/10/11 08:16:34;;;;;;;6.50;2.00;;;;;;;;;;4897882;29;20708;-62
2022/10/11 08:19:02;;;;;;;13.13;3.05;;;;;;;;;;4897920;29;20096;-63
2022/10/11 08:21:28;;;;;;;7.35;2.35;;;;;;;;;;4912158;29;20565;-62
2022/10/11 08:23:55;;;;;;;4.93;1.77;;;;;;;;;;4880555;29;20052;-63
2022/10/11 08:26:22;;;;;;;10.60;2.63;;;;;;;;;;4897883;29;20107;-63
2022/10/11 08:28:48;;;;;;;10.77;2.38;;;;;;;;;;4896605;29;20104;-63
2022/10/11 08:31:15;;;;;;;7.75;2.13;;;;;;;;;;4896488;29;20056;-63
2022/10/11 08:34:00;;;;;;;6.70;1.88;;;;;;;;;;4898370;29;20524;-62
2022/10/11 08:36:26;;;;;;;9.63;2.10;;;;;;;;;;4897624;29;20053;-62
2022/10/11 08:38:52;;;;;;;8.18;2.00;;;;;;;;;;4897421;29;20041;-62
2022/10/11 08:41:27;;;;;;;11.90;3.15;;;;;;;;;;4897556;29;20036;-63
2022/10/11 08:44:06;;;;;;;5.53;1.70;;;;;;;;;;4896713;29;20450;-62
2022/10/11 08:46:34;;;;;;;11.90;2.72;;;;;;;;;;4911890;29;20096;-63
2022/10/11 08:49:00;;;;;;;8.20;2.55;;;;;;;;;;4897227;29;20055;-62
2022/10/11 08:51:29;;;;;;;12.63;2.70;;;;;;;;;;4896060;29;20062;-62
2022/10/11 08:54:05;;;;;;;9.18;2.13;;;;;;;;;;4896862;29;20057;-62
2022/10/11 08:56:38;;;;;;;11.40;2.00;;;;;;;;;;4896696;29;20459;-62
2022/10/11 08:59:11;;;;;;;12.52;2.28;;;;;;;;;;4897050;29;20663;-62
2022/10/11 09:01:41;;;;;;;8.35;2.05;;;;;;;;;;4897103;29;20052;-62
2022/10/11 09:04:13;;;;;;;7.95;1.80;;;;;;;;;;4897017;29;20497;-63
2022/10/11 09:06:42;;;;;;;7.78;1.85;;;;;;;;;;4897258;29;20044;-62
2022/10/11 09:09:15;;;;;;;6.43;2.10;;;;;;;;;;4911729;29;20494;-62
2022/10/11 09:11:46;;;;;;;9.55;2.00;;;;;;;;;;4897102;29;20056;-62
2022/10/11 09:14:31;;;;;;;11.75;2.22;;;;;;;;;;4896421;29;20052;-62
2022/10/11 09:17:05;;;;;;;14.95;2.80;;;;;;;;;;4911527;29;20054;-62
2022/10/11 09:19:35;;;;;;;9.07;1.95;;;;;;;;;;4896986;29;20072;-63
2022/10/11 09:22:04;;;;;;;10.20;2.33;;;;;;;;;;4911534;29;20047;-64
2022/10/11 09:24:31;;;;;;;8.25;1.77;;;;;;;;;;4895504;29;20041;-63
2022/10/11 09:27:00;;;;;;;7.28;1.77;;;;;;;;;;4897694;29;20036;-63
2022/10/11 09:29:26;;;;;;;6.00;1.80;;;;;;;;;;4897220;29;20060;-63
2022/10/11 09:31:54;;;;;;;8.23;2.38;;;;;;;;;;4897468;29;20048;-63
2022/10/11 09:34:23;;;;;;;6.78;2.17;;;;;;;;;;4896912;29;20052;-63
2022/10/11 09:37:10;;;;;;;6.63;1.83;;;;;;;;;;4897024;29;20101;-64
2022/10/11 09:39:40;;;;;;;9.88;1.90;;;;;;;;;;4896798;29;20116;-64
2022/10/11 09:42:07;;;;;;;8.25;1.83;;;;;;;;;;4897404;29;20112;-64
2022/10/11 09:44:36;;;;;;;7.15;1.98;;;;;;;;;;4896918;29;20052;-64
2022/10/11 09:47:03;;;;;;;10.13;2.13;;;;;;;;;;4896777;29;20044;-63
2022/10/11 09:49:41;;;;;;;10.40;2.35;;;;;;;;;;4895516;29;20049;-64
2022/10/11 09:52:14;;;;;;;6.47;2.38;;;;;;;;;;4898222;29;20100;-63
2022/10/11 09:54:42;;;;;;;4.18;1.92;;;;;;;;;;4897759;29;20052;-64
2022/10/11 09:57:29;;;;;;;10.18;2.08;;;;;;;;;;4896939;29;20052;-64
2022/10/11 10:00:10;;;;;;;6.28;2.00;;;;;;;;;;4880431;29;20100;-64
2022/10/11 10:02:42;;;;;;;5.55;1.90;;;;;;;;;;4897067;29;20087;-64
2022/10/11 10:05:08;;;;;;;11.20;2.00;;;;;;;;;;4896961;29;20092;-63
2022/10/11 10:07:36;;;;;;;6.07;1.83;;;;;;;;;;4911276;29;20105;-63
2022/10/11 10:10:41;;;;;;;5.55;2.13;;;;;;;;;;4899453;29;20045;-64
2022/10/11 10:13:17;;;;;;;7.25;1.83;;;;;;;;;;4879825;29;20092;-64
2022/10/11 10:15:45;;;;;;;11.60;2.00;;;;;;;;;;4864043;29;20045;-63
2022/10/11 10:18:17;;;;;;;8.23;2.15;;;;;;;;;;4890527;29;20068;-63
2022/10/11 10:20:49;;;;;;;6.82;1.90;;;;;;;;;;4900120;29;20410;-63
2022/10/11 10:23:20;;;;;;;9.95;2.30;;;;;;;;;;4900246;29;20100;-63
2022/10/11 10:25:50;;;;;;;7.20;1.73;;;;;;;;;;4900577;29;20040;-62
2022/10/11 10:28:21;;;;;;;4.88;1.70;;;;;;;;;;4900798;29;20041;-63
2022/10/11 10:30:52;;;;;;;9.98;2.30;;;;;;;;;;4883746;29;20104;-63
2022/10/11 10:33:19;;;;;;;5.63;1.88;;;;;;;;;;4900158;29;20474;-64
2022/10/11 10:36:04;;;;;;;6.38;1.48;;;;;;;;;;4900133;29;20053;-63
2022/10/11 10:38:36;;;;;;;8.15;1.90;;;;;;;;;;4899932;29;20458;-63
2022/10/11 10:41:02;;;;;;;7.07;2.30;;;;;;;;;;4899692;29;20048;-63
2022/10/11 10:43:32;;;;;;;9.60;2.97;;;;;;;;;;4899398;29;20390;-63
2022/10/11 10:46:15;;;;;;;5.05;2.00;;;;;;;;;;4899684;29;20112;-63
2022/10/11 10:48:48;;;;;;;9.00;1.70;;;;;;;;;;4900260;29;20084;-63
2022/10/11 10:51:37;;;;;;;6.75;1.88;;;;;;;;;;4899810;29;20803;-62
2022/10/11 10:54:13;;;;;;;9.77;2.30;;;;;;;;;;4899357;29;20048;-63
2022/10/11 10:56:51;;;;;;;5.72;1.65;;;;;;;;;;4899360;29;20049;-63
2022/10/11 10:59:24;;;;;;;7.30;1.60;;;;;;;;;;4898069;29;20044;-63
2022/10/11 11:02:09;;;;;;;9.40;1.52;;;;;;;;;;4898275;29;20088;-62
2022/10/11 11:04:59;;;;;;;6.10;1.35;;;;;;;;;;4899100;29;20072;-63
2022/10/11 11:07:29;;;;;;;8.70;2.10;;;;;;;;;;4899277;29;20060;-63
2022/10/11 11:10:01;;;;;;;5.15;1.85;;;;;;;;;;4897935;29;20052;-63
2022/10/11 11:12:28;;;;;;;8.13;2.30;;;;;;;;;;4899636;29;20103;-63
2022/10/11 11:14:54;;;;;;;8.13;1.80;;;;;;;;;;4899300;29;20100;-63
2022/10/11 11:17:25;;;;;;;9.30;2.15;;;;;;;;;;4899477;29;20045;-63
2022/10/11 11:20:09;;;;;;;4.93;1.90;;;;;;;;;;4898872;29;20505;-63
2022/10/11 11:22:36;;;;;;;6.65;1.85;;;;;;;;;;4898653;29;20451;-62
2022/10/11 11:25:21;;;;;;;7.50;1.95;;;;;;;;;;4898577;29;20533;-62
2022/10/11 11:27:59;;;;;;;6.40;2.03;;;;;;;;;;4898777;29;20406;-62
2022/10/11 11:30:38;;;;;;;6.18;1.73;;;;;;;;;;4898818;29;20048;-62
2022/10/11 11:33:04;;;;;;;7.97;2.15;;;;;;;;;;4897378;29;20052;-62
2022/10/11 11:35:35;;;;;;;6.07;2.22;;;;;;;;;;4898756;29;20140;-62
2022/10/11 11:38:05;;;;;;;5.78;1.40;;;;;;;;;;4898675;29;20048;-62
2022/10/11 11:40:34;;;;;;;5.35;1.63;;;;;;;;;;4898790;29;20052;-62
2022/10/11 11:43:03;;;;;;;7.13;1.60;;;;;;;;;;4898474;29;20096;-62
2022/10/11 11:45:37;;;;;;;5.53;1.75;;;;;;;;;;4898142;29;20084;-62
2022/10/11 11:48:11;;;;;;;7.32;1.75;;;;;;;;;;4897131;29;20052;-62
2022/10/11 11:50:40;;;;;;;7.78;1.73;;;;;;;;;;4883710;29;20297;-62
2022/10/11 11:53:14;;;;;;;5.95;1.63;;;;;;;;;;4879585;29;20498;-62
2022/10/11 11:55:47;;;;;;;10.27;1.85;;;;;;;;;;4879201;29;20049;-62
2022/10/11 11:58:32;;;;;;;5.93;1.50;;;;;;;;;;4878522;29;20113;-62
2022/10/11 12:01:16;;;;;;;8.85;1.88;;;;;;;;;;4879627;29;20037;-63
2022/10/11 12:03:48;;;;;;;7.15;1.80;;;;;;;;;;4879265;29;20612;-63
2022/10/11 12:06:44;;;;;;;8.63;2.13;;;;;;;;;;4879522;29;20068;-63
2022/10/11 12:09:31;;;;;;;5.95;2.08;;;;;;;;;;4874704;29;20147;-64
2022/10/11 12:11:59;;;;;;;7.45;1.80;;;;;;;;;;4879489;29;20562;-64
2022/10/11 12:14:31;;;;;;;5.30;2.03;;;;;;;;;;4879125;29;20049;-65
2022/10/11 12:17:12;;;;;;;6.30;1.30;;;;;;;;;;4878178;29;20060;-65
2022/10/11 12:19:40;;;;;;;5.28;1.30;;;;;;;;;;4878070;29;20097;-64
2022/10/11 12:22:16;;;;;;;5.32;1.27;;;;;;;;;;4879176;29;20128;-64
2022/10/11 12:24:55;;;;;;;4.75;1.60;;;;;;;;;;4878996;29;20483;-64
2022/10/11 12:27:40;;;;;;;7.28;1.98;;;;;;;;;;4879284;29;20096;-65
2022/10/11 12:30:25;;;;;;;11.20;1.77;;;;;;;;;;4879148;29;20097;-64
2022/10/11 12:33:01;;;;;;;5.78;1.58;;;;;;;;;;4878722;29;20048;-64
2022/10/11 12:35:32;;;;;;;5.47;1.63;;;;;;;;;;4877488;29;20183;-63
2022/10/11 12:38:03;;;;;;;6.07;1.65;;;;;;;;;;4877834;29;20041;-64
2022/10/11 12:40:34;;;;;;;5.10;1.80;;;;;;;;;;4878877;29;20069;-64
2022/10/11 12:43:13;;;;;;;4.32;1.67;;;;;;;;;;4878872;29;20105;-64
2022/10/11 12:45:42;;;;;;;8.73;1.83;;;;;;;;;;4878826;29;20105;-64
2022/10/11 12:48:13;;;;;;;5.35;1.40;;;;;;;;;;4878739;29;20041;-64
2022/10/11 12:50:58;;;;;;;6.28;1.50;;;;;;;;;;4878904;29;20074;-64
2022/10/11 12:53:47;;;;;;;4.57;1.35;;;;;;;;;;4878696;29;20037;-64
2022/10/11 12:56:40;;;;;;;2.80;1.08;;;;;;;;;;4878780;29;20123;-65
2022/10/11 12:59:14;;;;;;;4.38;1.23;;;;;;;;;;4878658;29;20053;-65
2022/10/11 13:01:54;;;;;;;2.83;1.25;;;;;;;;;;4878452;29;20513;-64
2022/10/11 13:04:31;;;;;;;3.85;1.00;;;;;;;;;;4877178;29;20124;-64
2022/10/11 13:07:02;;;;;;;5.60;1.13;;;;;;;;;;4877461;29;20045;-64
2022/10/11 13:09:34;;;;;;;2.50;0.98;;;;;;;;;;4878817;29;20045;-64
2022/10/11 13:12:00;;;;;;;4.25;1.10;;;;;;;;;;4877807;29;20093;-64
2022/10/11 13:14:28;;;;;;;5.70;1.52;;;;;;;;;;4878757;29;20049;-64
2022/10/11 13:16:54;;;;;;;4.80;1.20;;;;;;;;;;4878568;29;20048;-64
2022/10/11 13:19:22;;;;;;;4.38;1.20;;;;;;;;;;4861715;29;20052;-64
2022/10/11 13:21:50;;;;;;;3.45;1.15;;;;;;;;;;4878259;29;20052;-64
2022/10/11 13:24:17;;;;;;;6.20;1.50;;;;;;;;;;4878232;29;20049;-64
2022/10/11 13:26:45;;;;;;;6.03;1.50;;;;;;;;;;4878359;29;20045;-64
2022/10/11 13:29:16;;;;;;;6.20;1.50;;;;;;;;;;4878218;29;20498;-63
2022/10/11 13:31:46;;;;;;;2.90;1.10;;;;;;;;;;4878196;29;20462;-64
2022/10/11 13:34:13;;;;;;;6.90;2.00;;;;;;;;;;4878013;29;20570;-64
2022/10/11 13:36:43;;;;;;;4.07;1.10;;;;;;;;;;4878332;29;20101;-65
2022/10/11 13:39:42;;;;;;;4.00;1.33;;;;;;;;;;4878226;29;20113;-65
2022/10/11 13:42:10;;;;;;;3.80;1.45;;;;;;;;;;4856974;29;20570;-65
2022/10/11 13:44:37;;;;;;;4.70;1.30;;;;;;;;;;4879371;29;20045;-63
2022/10/11 13:47:04;;;;;;;4.55;1.50;;;;;;;;;;4880208;29;20045;-63
2022/10/11 13:49:36;;;;;;;3.08;1.40;;;;;;;;;;4881682;29;20045;-63
2022/10/11 13:52:05;;;;;;;6.65;1.80;;;;;;;;;;4881450;29;20455;-63
2022/10/11 13:54:51;;;;;;;4.22;1.85;;;;;;;;;;4880021;29;20105;-63
2022/10/11 13:57:17;;;;;;;4.70;1.83;;;;;;;;;;4881043;29;20053;-63
2022/10/11 13:59:44;;;;;;;4.70;1.52;;;;;;;;;;4881404;29;20053;-63
2022/10/11 14:02:18;;;;;;;7.55;1.35;;;;;;;;;;4881569;29;20045;-63
2022/10/11 14:04:46;;;;;;;5.30;1.65;;;;;;;;;;4881112;29;20078;-63
2022/10/11 14:07:24;;;;;;;7.00;1.50;;;;;;;;;;4881345;29;20065;-63
2022/10/11 14:09:52;;;;;;;3.95;1.55;;;;;;;;;;4881793;29;20056;-63
2022/10/11 14:12:24;;;;;;;4.30;1.27;;;;;;;;;;4882043;29;20105;-63
2022/10/11 14:14:51;;;;;;;3.40;1.40;;;;;;;;;;4880941;29;20053;-63
2022/10/11 14:17:19;;;;;;;4.97;1.30;;;;;;;;;;4880296;29;20479;-64
2022/10/11 14:19:46;;;;;;;3.03;1.20;;;;;;;;;;4881670;29;20101;-64
2022/10/11 14:22:14;;;;;;;4.72;1.40;;;;;;;;;;4879851;29;20041;-64
2022/10/11 14:24:41;;;;;;;5.40;1.27;;;;;;;;;;4880811;29;20482;-64
2022/10/11 14:27:13;;;;;;;4.68;1.33;;;;;;;;;;4881442;29;20045;-64
2022/10/11 14:29:43;;;;;;;6.30;1.83;;;;;;;;;;4881155;29;20045;-64
2022/10/11 14:32:31;;;;;;;5.20;1.50;;;;;;;;;;4881252;29;20049;-65
2022/10/11 14:34:57;;;;;;;8.63;1.48;;;;;;;;;;4880359;29;20052;-65
2022/10/11 14:37:24;;;;;;;5.88;1.40;;;;;;;;;;4880972;29;20101;-65
2022/10/11 14:39:51;;;;;;;5.75;1.35;;;;;;;;;;4879758;29;20098;-64
2022/10/11 14:42:17;;;;;;;7.80;1.63;;;;;;;;;;4880950;29;20037;-64
2022/10/11 14:44:44;;;;;;;6.47;1.92;;;;;;;;;;4880169;29;20082;-64
2022/10/11 14:47:14;;;;;;;4.15;1.10;;;;;;;;;;4881025;29;20064;-64
2022/10/11 14:49:41;;;;;;;4.97;1.50;;;;;;;;;;4880907;29;20113;-64
2022/10/11 14:52:10;;;;;;;4.95;1.48;;;;;;;;;;4879624;29;20057;-64